Chadron, Nebraska
Current Conditions -  °F | °C
As of 2:53 PM on Monday 24 Nov 2014 (Local Time) from KCDR Reporting Station
Broken Clouds Broken Clouds  
Wind Chill: 29°   Ceiling: 11000
Heat Index: 37°   Visibility: 10mi
Dew Point: 28°   Wind: 12mph
Humidity: 70%   Direction: 20°NNE
Pressure: 29.99"   Gusts: 26mph
Location:  42.83°N, 103°W
Report Text: KCDR 242153Z AUTO 02010G23KT 10SM BKN110 03/M02 A2999 RMK AO2 PK WND 32034/2115 SLP188 T00281022
Loading
Personal Weather Stations






























Interactive Weather Map New forecast layout! Learn more

10-Day Weather Forecast

Advertisements
Track Severe Weather on mobile